sensor_id;sensor_type;location;lat;lon;timestamp;temperature;humidity
50606;DHT22;36557;53.572;10.170;2022-07-18T00:02:21;15.30;99.90
50606;DHT22;36557;53.572;10.170;2022-07-18T00:04:47;15.30;99.90
50606;DHT22;36557;53.572;10.170;2022-07-18T00:07:13;15.30;99.90
50606;DHT22;36557;53.572;10.170;2022-07-18T00:09:40;15.30;99.90
50606;DHT22;36557;53.572;10.170;2022-07-18T00:12:07;15.30;99.90
50606;DHT22;36557;53.572;10.170;2022-07-18T00:14:34;15.30;99.90
50606;DHT22;36557;53.572;10.170;2022-07-18T00:17:01;15.40;99.90
50606;DHT22;36557;53.572;10.170;2022-07-18T00:19:27;15.40;99.90
50606;DHT22;36557;53.572;10.170;2022-07-18T00:21:53;15.40;99.90
50606;DHT22;36557;53.572;10.170;2022-07-18T00:24:19;15.30;99.90
50606;DHT22;36557;53.572;10.170;2022-07-18T00:26:45;15.30;99.90
50606;DHT22;36557;53.572;10.170;2022-07-18T00:29:11;15.30;99.90
50606;DHT22;36557;53.572;10.170;2022-07-18T00:31:37;15.30;99.90
50606;DHT22;36557;53.572;10.170;2022-07-18T00:34:03;15.20;99.90
50606;DHT22;36557;53.572;10.170;2022-07-18T00:36:30;15.20;99.90
50606;DHT22;36557;53.572;10.170;2022-07-18T00:38:56;15.10;99.90
50606;DHT22;36557;53.572;10.170;2022-07-18T00:41:22;15.20;99.90
50606;DHT22;36557;53.572;10.170;2022-07-18T00:43:48;15.30;99.90
50606;DHT22;36557;53.572;10.170;2022-07-18T00:46:14;15.30;99.90
50606;DHT22;36557;53.572;10.170;2022-07-18T00:48:41;15.30;99.90
50606;DHT22;36557;53.572;10.170;2022-07-18T00:51:08;15.30;99.90
50606;DHT22;36557;53.572;10.170;2022-07-18T00:53:34;15.30;99.90
50606;DHT22;36557;53.572;10.170;2022-07-18T00:56:01;15.30;99.90
50606;DHT22;36557;53.572;10.170;2022-07-18T00:58:28;15.30;99.90
50606;DHT22;36557;53.572;10.170;2022-07-18T01:00:54;15.20;99.90
50606;DHT22;36557;53.572;10.170;2022-07-18T01:03:52;15.20;99.90
50606;DHT22;36557;53.572;10.170;2022-07-18T01:06:18;15.10;99.90
50606;DHT22;36557;53.572;10.170;2022-07-18T01:08:44;15.10;99.90
50606;DHT22;36557;53.572;10.170;2022-07-18T01:11:10;15.10;99.90
50606;DHT22;36557;53.572;10.170;2022-07-18T01:13:37;15.10;99.90
50606;DHT22;36557;53.572;10.170;2022-07-18T01:16:03;15.10;99.90
50606;DHT22;36557;53.572;10.170;2022-07-18T01:18:29;15.00;99.90
50606;DHT22;36557;53.572;10.170;2022-07-18T01:20:55;15.00;99.90
50606;DHT22;36557;53.572;10.170;2022-07-18T01:23:21;14.90;99.90
50606;DHT22;36557;53.572;10.170;2022-07-18T01:25:47;14.80;99.90
50606;DHT22;36557;53.572;10.170;2022-07-18T01:28:13;14.70;99.90
50606;DHT22;36557;53.572;10.170;2022-07-18T01:30:39;14.70;99.90
50606;DHT22;36557;53.572;10.170;2022-07-18T01:33:05;14.70;99.90
50606;DHT22;36557;53.572;10.170;2022-07-18T01:35:31;14.80;99.90
50606;DHT22;36557;53.572;10.170;2022-07-18T01:37:58;14.70;99.90
50606;DHT22;36557;53.572;10.170;2022-07-18T01:40:25;14.60;99.90
50606;DHT22;36557;53.572;10.170;2022-07-18T01:42:51;14.60;99.90
50606;DHT22;36557;53.572;10.170;2022-07-18T01:45:18;14.70;99.90
50606;DHT22;36557;53.572;10.170;2022-07-18T01:47:45;14.70;99.90
50606;DHT22;36557;53.572;10.170;2022-07-18T01:50:12;14.70;99.90
50606;DHT22;36557;53.572;10.170;2022-07-18T01:52:38;14.70;99.90
50606;DHT22;36557;53.572;10.170;2022-07-18T01:55:06;14.60;99.90
50606;DHT22;36557;53.572;10.170;2022-07-18T01:57:33;14.60;99.90
50606;DHT22;36557;53.572;10.170;2022-07-18T01:59:59;14.50;99.90
50606;DHT22;36557;53.572;10.170;2022-07-18T02:02:25;14.50;99.90
50606;DHT22;36557;53.572;10.170;2022-07-18T02:04:50;14.50;99.90
50606;DHT22;36557;53.572;10.170;2022-07-18T02:07:38;14.50;99.90
50606;DHT22;36557;53.572;10.170;2022-07-18T02:10:13;14.40;99.90
50606;DHT22;36557;53.572;10.170;2022-07-18T02:12:39;14.40;99.90
50606;DHT22;36557;53.572;10.170;2022-07-18T02:15:07;14.40;99.90
50606;DHT22;36557;53.572;10.170;2022-07-18T02:17:34;14.40;99.90
50606;DHT22;36557;53.572;10.170;2022-07-18T02:19:59;14.40;99.90
50606;DHT22;36557;53.572;10.170;2022-07-18T02:22:25;14.40;99.90
50606;DHT22;36557;53.572;10.170;2022-07-18T02:24:52;14.40;99.90
50606;DHT22;36557;53.572;10.170;2022-07-18T02:27:18;14.40;99.90
50606;DHT22;36557;53.572;10.170;2022-07-18T02:29:44;14.40;99.90
50606;DHT22;36557;53.572;10.170;2022-07-18T02:32:10;14.30;99.90
50606;DHT22;36557;53.572;10.170;2022-07-18T02:34:35;14.40;99.90
50606;DHT22;36557;53.572;10.170;2022-07-18T02:37:02;14.30;99.90
50606;DHT22;36557;53.572;10.170;2022-07-18T02:39:28;14.40;99.90
50606;DHT22;36557;53.572;10.170;2022-07-18T02:41:54;14.40;99.90
50606;DHT22;36557;53.572;10.170;2022-07-18T02:44:21;14.40;99.90
50606;DHT22;36557;53.572;10.170;2022-07-18T02:46:47;14.50;99.90
50606;DHT22;36557;53.572;10.170;2022-07-18T02:49:13;14.40;99.90
50606;DHT22;36557;53.572;10.170;2022-07-18T02:51:53;14.30;99.90
50606;DHT22;36557;53.572;10.170;2022-07-18T02:54:20;14.40;99.90
50606;DHT22;36557;53.572;10.170;2022-07-18T02:56:46;14.40;99.90
50606;DHT22;36557;53.572;10.170;2022-07-18T02:59:11;14.40;99.90
50606;DHT22;36557;53.572;10.170;2022-07-18T03:01:37;14.40;99.90
50606;DHT22;36557;53.572;10.170;2022-07-18T03:04:03;14.50;99.90
50606;DHT22;36557;53.572;10.170;2022-07-18T03:06:28;14.40;99.90
50606;DHT22;36557;53.572;10.170;2022-07-18T03:08:54;14.40;99.90
50606;DHT22;36557;53.572;10.170;2022-07-18T03:11:20;14.40;99.90
50606;DHT22;36557;53.572;10.170;2022-07-18T03:13:45;14.30;99.90
50606;DHT22;36557;53.572;10.170;2022-07-18T03:16:11;14.30;99.90
50606;DHT22;36557;53.572;10.170;2022-07-18T03:18:37;14.30;99.90
50606;DHT22;36557;53.572;10.170;2022-07-18T03:21:03;14.30;99.90
50606;DHT22;36557;53.572;10.170;2022-07-18T03:23:28;14.30;99.90
50606;DHT22;36557;53.572;10.170;2022-07-18T03:25:54;14.30;99.90
50606;DHT22;36557;53.572;10.170;2022-07-18T03:28:20;14.20;99.90
50606;DHT22;36557;53.572;10.170;2022-07-18T03:30:45;14.20;99.90
50606;DHT22;36557;53.572;10.170;2022-07-18T03:33:11;14.20;99.90
50606;DHT22;36557;53.572;10.170;2022-07-18T03:35:37;14.30;99.90
50606;DHT22;36557;53.572;10.170;2022-07-18T03:38:03;14.40;99.90
50606;DHT22;36557;53.572;10.170;2022-07-18T03:40:28;14.40;99.90
50606;DHT22;36557;53.572;10.170;2022-07-18T03:42:54;14.50;99.90
50606;DHT22;36557;53.572;10.170;2022-07-18T03:45:20;14.50;99.90
50606;DHT22;36557;53.572;10.170;2022-07-18T03:47:45;14.50;99.90
50606;DHT22;36557;53.572;10.170;2022-07-18T03:50:11;14.60;99.90
50606;DHT22;36557;53.572;10.170;2022-07-18T03:52:37;14.60;99.90
50606;DHT22;36557;53.572;10.170;2022-07-18T03:55:03;14.60;99.90
50606;DHT22;36557;53.572;10.170;2022-07-18T03:57:29;14.70;99.90
50606;DHT22;36557;53.572;10.170;2022-07-18T03:59:54;14.70;99.90
50606;DHT22;36557;53.572;10.170;2022-07-18T04:02:20;14.70;99.90
50606;DHT22;36557;53.572;10.170;2022-07-18T04:04:46;14.70;99.90
50606;DHT22;36557;53.572;10.170;2022-07-18T04:07:11;14.80;99.90
50606;DHT22;36557;53.572;10.170;2022-07-18T04:09:37;14.80;99.90
50606;DHT22;36557;53.572;10.170;2022-07-18T04:12:03;14.90;99.90
50606;DHT22;36557;53.572;10.170;2022-07-18T04:14:29;15.00;99.90
50606;DHT22;36557;53.572;10.170;2022-07-18T04:16:55;15.00;99.90
50606;DHT22;36557;53.572;10.170;2022-07-18T04:19:21;15.00;99.90
50606;DHT22;36557;53.572;10.170;2022-07-18T04:21:48;15.00;99.90
50606;DHT22;36557;53.572;10.170;2022-07-18T04:24:14;15.10;99.90
50606;DHT22;36557;53.572;10.170;2022-07-18T04:26:40;15.20;99.90
50606;DHT22;36557;53.572;10.170;2022-07-18T04:29:06;15.30;99.90
50606;DHT22;36557;53.572;10.170;2022-07-18T04:31:32;15.30;99.90
50606;DHT22;36557;53.572;10.170;2022-07-18T04:33:58;15.30;99.90
50606;DHT22;36557;53.572;10.170;2022-07-18T04:36:23;15.30;99.90
50606;DHT22;36557;53.572;10.170;2022-07-18T04:38:51;15.30;99.90
50606;DHT22;36557;53.572;10.170;2022-07-18T04:41:16;15.30;99.90
50606;DHT22;36557;53.572;10.170;2022-07-18T04:43:45;15.30;99.90
50606;DHT22;36557;53.572;10.170;2022-07-18T04:46:10;15.30;99.90
50606;DHT22;36557;53.572;10.170;2022-07-18T04:48:36;15.20;99.90
50606;DHT22;36557;53.572;10.170;2022-07-18T04:51:04;15.30;99.90
50606;DHT22;36557;53.572;10.170;2022-07-18T04:53:30;15.30;99.90
50606;DHT22;36557;53.572;10.170;2022-07-18T04:55:55;15.30;99.90
50606;DHT22;36557;53.572;10.170;2022-07-18T04:58:21;15.40;99.90
50606;DHT22;36557;53.572;10.170;2022-07-18T05:00:47;15.50;99.90
50606;DHT22;36557;53.572;10.170;2022-07-18T05:03:14;15.70;99.90
50606;DHT22;36557;53.572;10.170;2022-07-18T05:05:40;15.90;99.90
50606;DHT22;36557;53.572;10.170;2022-07-18T05:08:06;16.10;99.90
50606;DHT22;36557;53.572;10.170;2022-07-18T05:10:32;16.30;99.90
50606;DHT22;36557;53.572;10.170;2022-07-18T05:12:58;16.50;99.90
50606;DHT22;36557;53.572;10.170;2022-07-18T05:15:24;16.60;99.90
50606;DHT22;36557;53.572;10.170;2022-07-18T05:17:51;16.60;99.90
50606;DHT22;36557;53.572;10.170;2022-07-18T05:20:20;16.70;99.90
50606;DHT22;36557;53.572;10.170;2022-07-18T05:22:46;16.80;99.90
50606;DHT22;36557;53.572;10.170;2022-07-18T05:25:13;16.80;99.90
50606;DHT22;36557;53.572;10.170;2022-07-18T05:27:40;17.00;99.90
50606;DHT22;36557;53.572;10.170;2022-07-18T05:30:07;17.00;99.90
50606;DHT22;36557;53.572;10.170;2022-07-18T05:32:33;17.10;99.90
50606;DHT22;36557;53.572;10.170;2022-07-18T05:34:59;17.20;99.90
50606;DHT22;36557;53.572;10.170;2022-07-18T05:37:25;17.20;99.90
50606;DHT22;36557;53.572;10.170;2022-07-18T05:39:51;17.20;99.90
50606;DHT22;36557;53.572;10.170;2022-07-18T05:42:18;17.30;99.90
50606;DHT22;36557;53.572;10.170;2022-07-18T05:44:44;17.10;99.90
50606;DHT22;36557;53.572;10.170;2022-07-18T05:47:10;17.00;99.90
50606;DHT22;36557;53.572;10.170;2022-07-18T05:49:36;17.10;99.90
50606;DHT22;36557;53.572;10.170;2022-07-18T05:52:02;17.10;99.90
50606;DHT22;36557;53.572;10.170;2022-07-18T05:54:28;17.10;99.90
50606;DHT22;36557;53.572;10.170;2022-07-18T05:56:53;17.10;99.90
50606;DHT22;36557;53.572;10.170;2022-07-18T05:59:21;17.20;99.90
50606;DHT22;36557;53.572;10.170;2022-07-18T06:01:47;17.30;99.90
50606;DHT22;36557;53.572;10.170;2022-07-18T06:04:13;17.60;99.90
50606;DHT22;36557;53.572;10.170;2022-07-18T06:06:39;17.60;99.90
50606;DHT22;36557;53.572;10.170;2022-07-18T06:09:05;17.60;99.90
50606;DHT22;36557;53.572;10.170;2022-07-18T06:11:31;17.90;99.90
50606;DHT22;36557;53.572;10.170;2022-07-18T06:13:57;18.30;99.90
50606;DHT22;36557;53.572;10.170;2022-07-18T06:16:23;18.50;99.90
50606;DHT22;36557;53.572;10.170;2022-07-18T06:18:49;18.70;99.90
50606;DHT22;36557;53.572;10.170;2022-07-18T06:21:14;18.90;99.90
50606;DHT22;36557;53.572;10.170;2022-07-18T06:23:40;19.40;99.90
50606;DHT22;36557;53.572;10.170;2022-07-18T06:26:06;19.60;99.90
50606;DHT22;36557;53.572;10.170;2022-07-18T06:28:32;19.80;99.90
50606;DHT22;36557;53.572;10.170;2022-07-18T06:30:58;20.00;99.90
50606;DHT22;36557;53.572;10.170;2022-07-18T06:33:23;19.90;99.90
50606;DHT22;36557;53.572;10.170;2022-07-18T06:35:50;19.90;99.90
50606;DHT22;36557;53.572;10.170;2022-07-18T06:38:16;19.80;99.90
50606;DHT22;36557;53.572;10.170;2022-07-18T06:40:43;19.70;99.90
50606;DHT22;36557;53.572;10.170;2022-07-18T06:43:09;19.70;99.90
50606;DHT22;36557;53.572;10.170;2022-07-18T06:45:35;20.10;99.90
50606;DHT22;36557;53.572;10.170;2022-07-18T06:48:01;20.20;99.90
50606;DHT22;36557;53.572;10.170;2022-07-18T06:50:27;20.30;99.90
50606;DHT22;36557;53.572;10.170;2022-07-18T06:52:53;20.60;99.90
50606;DHT22;36557;53.572;10.170;2022-07-18T06:55:19;20.50;99.90
50606;DHT22;36557;53.572;10.170;2022-07-18T06:57:45;20.60;99.90
50606;DHT22;36557;53.572;10.170;2022-07-18T07:00:13;20.70;99.90
50606;DHT22;36557;53.572;10.170;2022-07-18T07:02:45;20.90;99.90
50606;DHT22;36557;53.572;10.170;2022-07-18T07:05:11;20.90;99.90
50606;DHT22;36557;53.572;10.170;2022-07-18T07:07:37;20.60;99.90
50606;DHT22;36557;53.572;10.170;2022-07-18T07:10:03;20.70;99.90
50606;DHT22;36557;53.572;10.170;2022-07-18T07:12:29;20.80;99.90
50606;DHT22;36557;53.572;10.170;2022-07-18T07:14:55;21.00;99.90
50606;DHT22;36557;53.572;10.170;2022-07-18T07:17:21;21.30;99.90
50606;DHT22;36557;53.572;10.170;2022-07-18T07:19:47;21.20;99.90
50606;DHT22;36557;53.572;10.170;2022-07-18T07:22:12;21.50;99.90
50606;DHT22;36557;53.572;10.170;2022-07-18T07:24:38;21.90;99.90
50606;DHT22;36557;53.572;10.170;2022-07-18T07:27:05;22.50;99.00
50606;DHT22;36557;53.572;10.170;2022-07-18T07:29:31;23.00;98.90
50606;DHT22;36557;53.572;10.170;2022-07-18T07:31:57;23.10;97.60
50606;DHT22;36557;53.572;10.170;2022-07-18T07:34:23;23.70;97.60
50606;DHT22;36557;53.572;10.170;2022-07-18T07:36:48;23.70;96.30
50606;DHT22;36557;53.572;10.170;2022-07-18T07:39:14;24.10;95.20
50606;DHT22;36557;53.572;10.170;2022-07-18T07:41:40;23.80;95.80
50606;DHT22;36557;53.572;10.170;2022-07-18T07:44:05;23.90;94.70
50606;DHT22;36557;53.572;10.170;2022-07-18T07:46:31;24.20;94.30
50606;DHT22;36557;53.572;10.170;2022-07-18T07:48:57;23.70;94.40
50606;DHT22;36557;53.572;10.170;2022-07-18T07:51:23;23.60;95.40
50606;DHT22;36557;53.572;10.170;2022-07-18T07:53:48;23.70;96.10
50606;DHT22;36557;53.572;10.170;2022-07-18T07:56:14;24.20;95.00
50606;DHT22;36557;53.572;10.170;2022-07-18T07:58:44;24.20;94.40
50606;DHT22;36557;53.572;10.170;2022-07-18T08:01:09;24.70;94.70
50606;DHT22;36557;53.572;10.170;2022-07-18T08:03:37;24.60;94.30
50606;DHT22;36557;53.572;10.170;2022-07-18T08:06:03;24.90;93.50
50606;DHT22;36557;53.572;10.170;2022-07-18T08:08:29;24.50;94.10
50606;DHT22;36557;53.572;10.170;2022-07-18T08:10:55;25.10;94.00
50606;DHT22;36557;53.572;10.170;2022-07-18T08:13:20;25.60;93.40
50606;DHT22;36557;53.572;10.170;2022-07-18T08:15:46;25.40;91.70
50606;DHT22;36557;53.572;10.170;2022-07-18T08:18:12;25.30;91.60
50606;DHT22;36557;53.572;10.170;2022-07-18T08:20:38;25.40;91.30
50606;DHT22;36557;53.572;10.170;2022-07-18T08:23:06;25.70;92.00
50606;DHT22;36557;53.572;10.170;2022-07-18T08:25:34;26.50;90.80
50606;DHT22;36557;53.572;10.170;2022-07-18T08:28:01;26.10;88.80
50606;DHT22;36557;53.572;10.170;2022-07-18T08:30:27;26.50;86.80
50606;DHT22;36557;53.572;10.170;2022-07-18T08:32:53;26.90;88.00
50606;DHT22;36557;53.572;10.170;2022-07-18T08:35:19;27.10;86.40
50606;DHT22;36557;53.572;10.170;2022-07-18T08:37:45;26.80;86.00
50606;DHT22;36557;53.572;10.170;2022-07-18T08:40:11;26.70;85.10
50606;DHT22;36557;53.572;10.170;2022-07-18T08:42:37;26.90;84.40
50606;DHT22;36557;53.572;10.170;2022-07-18T08:45:04;27.20;85.10
50606;DHT22;36557;53.572;10.170;2022-07-18T08:47:31;27.10;83.40
50606;DHT22;36557;53.572;10.170;2022-07-18T08:49:58;27.00;83.70
50606;DHT22;36557;53.572;10.170;2022-07-18T08:52:24;27.00;81.70
50606;DHT22;36557;53.572;10.170;2022-07-18T08:54:50;26.90;83.40
50606;DHT22;36557;53.572;10.170;2022-07-18T08:57:17;27.50;81.50
50606;DHT22;36557;53.572;10.170;2022-07-18T08:59:43;28.10;81.60
50606;DHT22;36557;53.572;10.170;2022-07-18T09:02:09;28.00;80.40
50606;DHT22;36557;53.572;10.170;2022-07-18T09:04:40;27.60;79.70
50606;DHT22;36557;53.572;10.170;2022-07-18T09:07:07;27.50;82.10
50606;DHT22;36557;53.572;10.170;2022-07-18T09:09:37;28.40;80.80
50606;DHT22;36557;53.572;10.170;2022-07-18T09:12:08;29.00;76.80
50606;DHT22;36557;53.572;10.170;2022-07-18T09:14:37;28.90;76.40
50606;DHT22;36557;53.572;10.170;2022-07-18T09:19:39;27.90;76.70
50606;DHT22;36557;53.572;10.170;2022-07-18T09:22:18;28.40;78.20
50606;DHT22;36557;53.572;10.170;2022-07-18T09:24:59;28.10;77.60
50606;DHT22;36557;53.572;10.170;2022-07-18T09:27:40;29.10;76.50
50606;DHT22;36557;53.572;10.170;2022-07-18T09:32:38;28.80;73.50
50606;DHT22;36557;53.572;10.170;2022-07-18T09:35:25;28.10;74.40
50606;DHT22;36557;53.572;10.170;2022-07-18T09:38:14;27.90;73.40
50606;DHT22;36557;53.572;10.170;2022-07-18T09:40:42;27.90;76.30
50606;DHT22;36557;53.572;10.170;2022-07-18T09:43:16;28.10;73.90
50606;DHT22;36557;53.572;10.170;2022-07-18T09:45:44;28.40;72.50
50606;DHT22;36557;53.572;10.170;2022-07-18T09:48:14;28.80;74.10
50606;DHT22;36557;53.572;10.170;2022-07-18T09:50:43;29.00;72.60
50606;DHT22;36557;53.572;10.170;2022-07-18T09:53:18;29.90;67.90
50606;DHT22;36557;53.572;10.170;2022-07-18T09:58:25;30.30;70.20
50606;DHT22;36557;53.572;10.170;2022-07-18T10:00:53;30.20;68.80
50606;DHT22;36557;53.572;10.170;2022-07-18T10:03:20;30.10;69.40
50606;DHT22;36557;53.572;10.170;2022-07-18T10:05:48;30.10;66.10
50606;DHT22;36557;53.572;10.170;2022-07-18T10:08:23;29.70;69.30
50606;DHT22;36557;53.572;10.170;2022-07-18T10:10:51;29.70;70.30
50606;DHT22;36557;53.572;10.170;2022-07-18T10:13:18;28.30;68.30
50606;DHT22;36557;53.572;10.170;2022-07-18T10:15:46;26.30;70.80
50606;DHT22;36557;53.572;10.170;2022-07-18T10:18:15;28.60;76.10
50606;DHT22;36557;53.572;10.170;2022-07-18T10:21:10;27.70;69.70
50606;DHT22;36557;53.572;10.170;2022-07-18T10:23:40;27.70;75.70
50606;DHT22;36557;53.572;10.170;2022-07-18T10:26:17;28.20;74.50
50606;DHT22;36557;53.572;10.170;2022-07-18T10:39:11;30.70;68.90
50606;DHT22;36557;53.572;10.170;2022-07-18T10:57:40;33.00;63.20
50606;DHT22;36557;53.572;10.170;2022-07-18T11:02:42;32.50;62.40
50606;DHT22;36557;53.572;10.170;2022-07-18T11:05:32;32.30;63.70
50606;DHT22;36557;53.572;10.170;2022-07-18T11:21:25;32.10;60.30
50606;DHT22;36557;53.572;10.170;2022-07-18T11:23:59;31.30;58.50
50606;DHT22;36557;53.572;10.170;2022-07-18T11:26:26;31.30;60.30
50606;DHT22;36557;53.572;10.170;2022-07-18T11:29:08;30.90;58.60
50606;DHT22;36557;53.572;10.170;2022-07-18T11:34:09;29.80;60.70
50606;DHT22;36557;53.572;10.170;2022-07-18T11:36:39;30.20;63.00
50606;DHT22;36557;53.572;10.170;2022-07-18T11:39:06;30.20;59.20
50606;DHT22;36557;53.572;10.170;2022-07-18T11:41:31;30.50;61.10
50606;DHT22;36557;53.572;10.170;2022-07-18T11:43:58;30.80;61.90
50606;DHT22;36557;53.572;10.170;2022-07-18T11:46:26;31.10;61.60
50606;DHT22;36557;53.572;10.170;2022-07-18T11:49:00;30.70;62.00
50606;DHT22;36557;53.572;10.170;2022-07-18T11:51:34;30.40;62.50
50606;DHT22;36557;53.572;10.170;2022-07-18T11:54:00;29.90;63.40
50606;DHT22;36557;53.572;10.170;2022-07-18T11:56:26;29.90;61.90
50606;DHT22;36557;53.572;10.170;2022-07-18T11:58:51;30.40;62.00
50606;DHT22;36557;53.572;10.170;2022-07-18T12:01:18;30.20;61.70
50606;DHT22;36557;53.572;10.170;2022-07-18T12:03:49;30.40;62.40
50606;DHT22;36557;53.572;10.170;2022-07-18T12:06:17;30.80;61.60
50606;DHT22;36557;53.572;10.170;2022-07-18T12:08:51;30.80;60.50
50606;DHT22;36557;53.572;10.170;2022-07-18T12:11:18;30.70;61.80
50606;DHT22;36557;53.572;10.170;2022-07-18T12:13:49;30.90;61.80
50606;DHT22;36557;53.572;10.170;2022-07-18T12:16:31;30.50;60.50
50606;DHT22;36557;53.572;10.170;2022-07-18T12:19:08;30.50;60.90
50606;DHT22;36557;53.572;10.170;2022-07-18T12:24:25;31.30;59.40
50606;DHT22;36557;53.572;10.170;2022-07-18T12:27:19;31.20;60.60
50606;DHT22;36557;53.572;10.170;2022-07-18T12:35:11;30.90;59.50
50606;DHT22;36557;53.572;10.170;2022-07-18T12:37:38;30.80;59.70
50606;DHT22;36557;53.572;10.170;2022-07-18T12:40:08;30.80;59.60
50606;DHT22;36557;53.572;10.170;2022-07-18T12:42:41;31.00;58.40
50606;DHT22;36557;53.572;10.170;2022-07-18T12:45:09;30.90;60.10
50606;DHT22;36557;53.572;10.170;2022-07-18T12:47:36;31.70;57.90
50606;DHT22;36557;53.572;10.170;2022-07-18T12:50:05;32.90;60.70
50606;DHT22;36557;53.572;10.170;2022-07-18T12:52:32;33.00;58.30
50606;DHT22;36557;53.572;10.170;2022-07-18T12:54:58;32.30;57.00
50606;DHT22;36557;53.572;10.170;2022-07-18T12:57:24;32.00;56.80
50606;DHT22;36557;53.572;10.170;2022-07-18T12:59:50;31.70;57.20
50606;DHT22;36557;53.572;10.170;2022-07-18T13:02:16;31.60;57.00
50606;DHT22;36557;53.572;10.170;2022-07-18T13:04:42;32.20;56.20
50606;DHT22;36557;53.572;10.170;2022-07-18T13:07:09;31.90;57.30
50606;DHT22;36557;53.572;10.170;2022-07-18T13:09:34;31.90;56.90
50606;DHT22;36557;53.572;10.170;2022-07-18T13:12:01;31.90;58.10
50606;DHT22;36557;53.572;10.170;2022-07-18T13:14:27;31.50;57.50
50606;DHT22;36557;53.572;10.170;2022-07-18T13:16:53;31.40;57.40
50606;DHT22;36557;53.572;10.170;2022-07-18T13:19:19;30.90;57.60
50606;DHT22;36557;53.572;10.170;2022-07-18T13:21:46;31.30;58.70
50606;DHT22;36557;53.572;10.170;2022-07-18T13:24:13;31.50;57.50
50606;DHT22;36557;53.572;10.170;2022-07-18T13:26:40;31.80;56.70
50606;DHT22;36557;53.572;10.170;2022-07-18T13:29:08;31.80;57.50
50606;DHT22;36557;53.572;10.170;2022-07-18T13:31:34;32.10;57.30
50606;DHT22;36557;53.572;10.170;2022-07-18T13:34:02;31.70;56.70
50606;DHT22;36557;53.572;10.170;2022-07-18T13:36:27;31.70;56.10
50606;DHT22;36557;53.572;10.170;2022-07-18T13:38:54;30.80;58.00
50606;DHT22;36557;53.572;10.170;2022-07-18T13:41:21;31.00;58.40
50606;DHT22;36557;53.572;10.170;2022-07-18T13:43:47;31.50;57.20
50606;DHT22;36557;53.572;10.170;2022-07-18T13:46:15;31.50;59.70
50606;DHT22;36557;53.572;10.170;2022-07-18T13:48:42;31.80;57.70
50606;DHT22;36557;53.572;10.170;2022-07-18T13:51:09;31.80;56.70
50606;DHT22;36557;53.572;10.170;2022-07-18T13:53:35;31.50;56.30
50606;DHT22;36557;53.572;10.170;2022-07-18T13:56:01;31.50;57.30
50606;DHT22;36557;53.572;10.170;2022-07-18T13:58:27;31.50;58.60
50606;DHT22;36557;53.572;10.170;2022-07-18T14:00:52;32.20;57.80
50606;DHT22;36557;53.572;10.170;2022-07-18T14:03:18;31.60;57.90
50606;DHT22;36557;53.572;10.170;2022-07-18T14:05:44;31.80;57.40
50606;DHT22;36557;53.572;10.170;2022-07-18T14:08:09;31.50;57.30
50606;DHT22;36557;53.572;10.170;2022-07-18T14:10:35;32.00;56.40
50606;DHT22;36557;53.572;10.170;2022-07-18T14:13:02;32.90;57.00
50606;DHT22;36557;53.572;10.170;2022-07-18T14:15:28;32.60;59.70
50606;DHT22;36557;53.572;10.170;2022-07-18T14:17:54;32.90;57.00
50606;DHT22;36557;53.572;10.170;2022-07-18T14:20:20;33.50;55.30
50606;DHT22;36557;53.572;10.170;2022-07-18T14:22:47;33.40;58.20
50606;DHT22;36557;53.572;10.170;2022-07-18T14:25:15;33.10;57.50
50606;DHT22;36557;53.572;10.170;2022-07-18T14:27:41;34.40;56.00
50606;DHT22;36557;53.572;10.170;2022-07-18T14:30:09;34.80;55.60
50606;DHT22;36557;53.572;10.170;2022-07-18T14:32:36;33.10;53.20
50606;DHT22;36557;53.572;10.170;2022-07-18T14:35:02;32.40;56.90
50606;DHT22;36557;53.572;10.170;2022-07-18T14:37:28;32.20;55.80
50606;DHT22;36557;53.572;10.170;2022-07-18T14:39:54;33.00;56.10
50606;DHT22;36557;53.572;10.170;2022-07-18T14:42:19;32.00;57.00
50606;DHT22;36557;53.572;10.170;2022-07-18T14:44:45;31.70;56.90
50606;DHT22;36557;53.572;10.170;2022-07-18T14:47:11;31.60;56.60
50606;DHT22;36557;53.572;10.170;2022-07-18T14:49:37;32.30;55.80
50606;DHT22;36557;53.572;10.170;2022-07-18T14:52:02;32.90;55.00
50606;DHT22;36557;53.572;10.170;2022-07-18T14:54:28;33.50;53.70
50606;DHT22;36557;53.572;10.170;2022-07-18T14:56:54;34.00;57.10
50606;DHT22;36557;53.572;10.170;2022-07-18T14:59:21;32.30;52.30
50606;DHT22;36557;53.572;10.170;2022-07-18T15:01:47;32.20;54.10
50606;DHT22;36557;53.572;10.170;2022-07-18T15:04:13;32.70;53.40
50606;DHT22;36557;53.572;10.170;2022-07-18T15:06:39;32.80;54.80
50606;DHT22;36557;53.572;10.170;2022-07-18T15:09:07;33.10;54.90
50606;DHT22;36557;53.572;10.170;2022-07-18T15:11:35;33.10;54.40
50606;DHT22;36557;53.572;10.170;2022-07-18T15:14:00;32.90;54.30
50606;DHT22;36557;53.572;10.170;2022-07-18T15:16:26;33.20;55.00
50606;DHT22;36557;53.572;10.170;2022-07-18T15:18:52;33.40;53.90
50606;DHT22;36557;53.572;10.170;2022-07-18T15:21:18;33.60;52.10
50606;DHT22;36557;53.572;10.170;2022-07-18T15:23:44;33.30;53.80
50606;DHT22;36557;53.572;10.170;2022-07-18T15:26:09;31.30;53.40
50606;DHT22;36557;53.572;10.170;2022-07-18T15:28:35;30.20;54.20
50606;DHT22;36557;53.572;10.170;2022-07-18T15:31:01;31.70;57.50
50606;DHT22;36557;53.572;10.170;2022-07-18T15:33:27;31.40;57.10
50606;DHT22;36557;53.572;10.170;2022-07-18T15:35:52;32.20;55.10
50606;DHT22;36557;53.572;10.170;2022-07-18T15:38:18;31.80;57.10
50606;DHT22;36557;53.572;10.170;2022-07-18T15:40:44;30.80;55.50
50606;DHT22;36557;53.572;10.170;2022-07-18T15:43:10;30.30;57.00
50606;DHT22;36557;53.572;10.170;2022-07-18T15:45:36;30.50;55.30
50606;DHT22;36557;53.572;10.170;2022-07-18T15:48:02;30.30;56.70
50606;DHT22;36557;53.572;10.170;2022-07-18T15:50:28;30.30;56.90
50606;DHT22;36557;53.572;10.170;2022-07-18T15:52:53;30.80;56.10
50606;DHT22;36557;53.572;10.170;2022-07-18T15:55:19;29.90;55.70
50606;DHT22;36557;53.572;10.170;2022-07-18T15:57:45;29.80;56.80
50606;DHT22;36557;53.572;10.170;2022-07-18T16:00:11;30.00;58.30
50606;DHT22;36557;53.572;10.170;2022-07-18T16:02:37;30.20;56.40
50606;DHT22;36557;53.572;10.170;2022-07-18T16:05:03;30.20;58.90
50606;DHT22;36557;53.572;10.170;2022-07-18T16:07:29;30.20;56.30
50606;DHT22;36557;53.572;10.170;2022-07-18T16:09:55;30.00;56.50
50606;DHT22;36557;53.572;10.170;2022-07-18T16:12:21;29.50;55.70
50606;DHT22;36557;53.572;10.170;2022-07-18T16:14:46;29.00;56.80
50606;DHT22;36557;53.572;10.170;2022-07-18T16:17:12;28.70;57.30